createdAt,value
2023-03-12T00:01:59.806Z,6.75
2023-03-12T00:04:26.866Z,3.25
2023-03-12T00:06:53.450Z,6.00
2023-03-12T00:09:20.142Z,9.80
2023-03-12T00:11:46.706Z,4.05
2023-03-12T00:14:13.263Z,7.47
2023-03-12T00:16:39.800Z,6.30
2023-03-12T00:19:06.374Z,6.72
2023-03-12T00:21:33.090Z,4.65
2023-03-12T00:23:59.730Z,4.90
2023-03-12T00:26:26.313Z,5.28
2023-03-12T00:28:53.881Z,5.15
2023-03-12T00:31:29.658Z,7.50
2023-03-12T00:33:56.544Z,4.13
2023-03-12T00:36:27.047Z,3.08
2023-03-12T00:38:54.825Z,5.05
2023-03-12T00:41:21.940Z,4.32
2023-03-12T00:43:49.855Z,5.07
2023-03-12T00:46:16.563Z,5.35
2023-03-12T00:48:43.556Z,3.33
2023-03-12T00:51:10.983Z,2.75
2023-03-12T00:53:37.686Z,6.03
2023-03-12T00:56:05.381Z,3.70
2023-03-12T00:58:32.097Z,5.00
2023-03-12T01:00:58.959Z,4.93
2023-03-12T01:03:25.735Z,4.38
2023-03-12T01:05:55.166Z,4.47
2023-03-12T01:08:22.356Z,4.85
2023-03-12T01:10:48.900Z,4.38
2023-03-12T01:13:15.561Z,3.40
2023-03-12T01:15:42.773Z,4.78
2023-03-12T01:18:09.341Z,6.53
2023-03-12T01:20:36.270Z,4.80
2023-03-12T01:23:02.901Z,8.32
2023-03-12T01:25:29.546Z,4.72
2023-03-12T01:27:56.086Z,5.75
2023-03-12T01:30:23.761Z,2.28
2023-03-12T01:32:51.604Z,7.40
2023-03-12T01:35:18.581Z,8.15
2023-03-12T01:37:45.315Z,3.63
2023-03-12T01:40:16.068Z,3.80
2023-03-12T01:42:42.687Z,8.82
2023-03-12T01:45:46.766Z,4.95
2023-03-12T01:48:13.377Z,4.18
2023-03-12T01:50:39.923Z,5.57
2023-03-12T01:53:06.576Z,3.03
2023-03-12T01:55:33.258Z,4.40
2023-03-12T01:58:01.642Z,5.10
2023-03-12T02:00:28.338Z,4.05
2023-03-12T02:03:00.013Z,3.88
2023-03-12T02:05:35.320Z,4.50
2023-03-12T02:08:01.982Z,3.53
2023-03-12T02:10:28.889Z,6.00
2023-03-12T02:12:55.456Z,5.13
2023-03-12T02:15:22.261Z,8.88
2023-03-12T02:17:48.854Z,4.80
2023-03-12T02:20:20.828Z,5.50
2023-03-12T02:22:52.029Z,4.88
2023-03-12T02:25:25.458Z,4.90
2023-03-12T02:27:52.794Z,4.95
2023-03-12T02:30:20.067Z,2.97
2023-03-12T02:32:47.556Z,2.50
2023-03-12T02:35:16.069Z,5.05
2023-03-12T02:37:53.809Z,3.80
2023-03-12T02:40:35.248Z,5.25
2023-03-12T02:43:02.727Z,5.05
2023-03-12T02:45:29.972Z,3.90
2023-03-12T02:47:56.537Z,5.35
2023-03-12T02:50:23.382Z,6.93
2023-03-12T02:52:50.027Z,5.55
2023-03-12T02:55:17.414Z,5.05
2023-03-12T02:57:44.104Z,4.35
2023-03-12T03:00:14.652Z,4.97
2023-03-12T03:02:45.301Z,3.72
2023-03-12T03:05:12.380Z,5.40
2023-03-12T03:07:39.495Z,3.72
2023-03-12T03:10:06.666Z,4.85
2023-03-12T03:12:35.564Z,7.72
2023-03-12T03:15:04.326Z,5.28
2023-03-12T03:17:30.985Z,5.65
2023-03-12T03:19:57.581Z,4.05
2023-03-12T03:22:24.222Z,7.03
2023-03-12T03:24:50.834Z,4.60
2023-03-12T03:27:17.419Z,5.03
2023-03-12T03:29:46.172Z,5.18
2023-03-12T03:32:13.321Z,4.45
2023-03-12T03:34:40.004Z,3.63
2023-03-12T03:37:06.738Z,5.07
2023-03-12T03:39:34.666Z,3.38
2023-03-12T03:42:01.573Z,4.97
2023-03-12T03:44:31.103Z,4.93
2023-03-12T03:46:57.788Z,4.32
2023-03-12T03:49:24.381Z,6.80
2023-03-12T03:51:55.315Z,6.72
2023-03-12T03:54:31.190Z,4.35
2023-03-12T03:56:58.273Z,5.18
2023-03-12T03:59:25.061Z,5.80
2023-03-12T04:01:52.384Z,5.00
2023-03-12T04:04:18.973Z,5.15
2023-03-12T04:06:45.592Z,5.85
2023-03-12T04:09:13.958Z,11.95
2023-03-12T04:11:40.685Z,6.50
2023-03-12T04:14:08.769Z,4.88
2023-03-12T04:16:38.034Z,6.45
2023-03-12T04:19:05.139Z,4.95
2023-03-12T04:21:31.853Z,7.00
2023-03-12T04:23:58.497Z,7.45
2023-03-12T04:26:29.298Z,6.30
2023-03-12T04:28:56.689Z,8.18
2023-03-12T04:31:23.300Z,7.05
2023-03-12T04:33:50.893Z,4.85
2023-03-12T04:36:19.708Z,6.68
2023-03-12T04:38:48.554Z,10.57
2023-03-12T04:41:17.641Z,6.40
2023-03-12T04:43:51.739Z,6.80
2023-03-12T04:46:19.399Z,8.93
2023-03-12T04:48:46.767Z,6.03
2023-03-12T04:51:14.446Z,6.53
2023-03-12T04:53:41.249Z,5.97
2023-03-12T04:56:09.878Z,9.68
2023-03-12T04:58:37.689Z,5.93
2023-03-12T05:01:05.683Z,8.70
2023-03-12T05:03:32.678Z,7.82
2023-03-12T05:06:00.752Z,6.43
2023-03-12T05:08:27.405Z,7.68
2023-03-12T05:10:54.112Z,7.32
2023-03-12T05:13:22.522Z,7.32
2023-03-12T05:15:51.987Z,6.35
2023-03-12T05:18:21.618Z,6.18
2023-03-12T05:20:58.425Z,7.10
2023-03-12T05:23:25.015Z,11.60
2023-03-12T05:25:51.789Z,6.25
2023-03-12T05:28:20.210Z,5.57
2023-03-12T05:30:46.922Z,5.68
2023-03-12T05:33:13.617Z,4.47
2023-03-12T05:35:40.186Z,4.13
2023-03-12T05:38:06.780Z,5.90
2023-03-12T05:40:33.387Z,5.63
2023-03-12T05:42:59.933Z,5.97
2023-03-12T05:45:27.186Z,7.70
2023-03-12T05:47:56.063Z,6.20
2023-03-12T05:50:22.799Z,4.70
2023-03-12T05:52:49.569Z,4.20
2023-03-12T05:55:16.323Z,5.38
2023-03-12T05:57:42.970Z,8.20
2023-03-12T06:00:10.579Z,4.95
2023-03-12T06:02:40.131Z,7.38
2023-03-12T06:05:11.222Z,6.80
2023-03-12T06:07:38.198Z,6.15
2023-03-12T06:10:05.132Z,7.55
2023-03-12T06:12:31.757Z,7.63
2023-03-12T06:14:58.590Z,7.55
2023-03-12T06:17:25.321Z,6.45
2023-03-12T06:19:52.959Z,8.15
2023-03-12T06:22:20.762Z,5.38
2023-03-12T06:24:48.359Z,4.82
2023-03-12T06:27:16.774Z,4.28
2023-03-12T06:29:43.349Z,4.85
2023-03-12T06:32:09.888Z,4.38
2023-03-12T06:34:36.438Z,6.57
2023-03-12T06:37:03.065Z,8.13
2023-03-12T06:39:30.195Z,6.88
2023-03-12T06:41:56.856Z,7.10
2023-03-12T06:44:23.415Z,5.03
2023-03-12T06:46:50.052Z,9.43
2023-03-12T06:49:16.656Z,4.82
2023-03-12T06:51:43.237Z,6.63
2023-03-12T06:54:09.861Z,4.18
2023-03-12T06:56:36.559Z,5.18
2023-03-12T06:59:03.112Z,6.72
2023-03-12T07:01:29.677Z,6.50
2023-03-12T07:03:56.221Z,4.97
2023-03-12T07:06:24.137Z,5.32
2023-03-12T07:08:50.945Z,4.63
2023-03-12T07:11:20.413Z,7.28
2023-03-12T07:13:47.005Z,5.22
2023-03-12T07:16:14.038Z,7.07
2023-03-12T07:18:40.727Z,6.18
2023-03-12T07:21:07.291Z,7.93
2023-03-12T07:23:33.847Z,6.47
2023-03-12T07:26:00.394Z,5.50
2023-03-12T07:28:26.976Z,7.68
2023-03-12T07:30:53.542Z,4.10
2023-03-12T07:33:21.629Z,5.80
2023-03-12T07:35:51.567Z,5.40
2023-03-12T07:38:18.513Z,5.63
2023-03-12T07:40:45.276Z,5.45
2023-03-12T07:43:12.916Z,7.18
2023-03-12T07:45:41.240Z,7.82
2023-03-12T07:48:08.510Z,6.93
2023-03-12T07:50:35.902Z,5.63
2023-03-12T07:53:02.582Z,6.15
2023-03-12T07:55:29.160Z,6.72
2023-03-12T07:57:58.489Z,6.38
2023-03-12T08:00:26.308Z,5.28
2023-03-12T08:02:53.226Z,5.10
2023-03-12T08:05:20.313Z,6.07
2023-03-12T08:07:47.084Z,3.88
2023-03-12T08:10:14.037Z,7.63
2023-03-12T08:12:40.692Z,3.85
2023-03-12T08:15:08.506Z,6.75
2023-03-12T08:17:35.269Z,7.20
2023-03-12T08:20:01.806Z,6.13
2023-03-12T08:22:28.369Z,7.13
2023-03-12T08:24:55.005Z,4.35
2023-03-12T08:27:21.613Z,5.97
2023-03-12T08:29:48.209Z,5.53
2023-03-12T08:32:14.959Z,6.30
2023-03-12T08:34:41.816Z,7.68
2023-03-12T08:37:08.525Z,6.10
2023-03-12T08:39:35.144Z,4.93
2023-03-12T08:42:01.744Z,6.75
2023-03-12T08:44:28.493Z,8.52
2023-03-12T08:46:55.136Z,3.42
2023-03-12T08:49:22.277Z,6.45
2023-03-12T08:51:49.216Z,4.63
2023-03-12T08:54:15.818Z,5.03
2023-03-12T08:56:43.636Z,5.95
2023-03-12T08:59:13.648Z,3.17
2023-03-12T09:01:43.425Z,6.03
2023-03-12T09:04:10.530Z,5.38
2023-03-12T09:06:38.544Z,4.13
2023-03-12T09:09:05.750Z,2.70
2023-03-12T09:11:33.930Z,5.70
2023-03-12T09:16:47.655Z,6.35
2023-03-12T09:19:14.347Z,3.45
2023-03-12T09:21:40.919Z,4.90
2023-03-12T09:24:07.739Z,4.47
2023-03-12T09:26:34.533Z,5.55
2023-03-12T09:29:01.133Z,5.55
2023-03-12T09:31:27.958Z,4.95
2023-03-12T09:33:54.529Z,2.92
2023-03-12T09:36:21.141Z,4.95
2023-03-12T09:38:47.747Z,3.10
2023-03-12T09:41:18.949Z,5.53
2023-03-12T09:43:53.193Z,7.28
2023-03-12T09:46:27.481Z,1.65
2023-03-12T09:48:57.398Z,3.97
2023-03-12T09:51:45.154Z,3.33
2023-03-12T09:54:23.699Z,5.88
2023-03-12T09:56:51.588Z,6.00
2023-03-12T09:59:18.365Z,2.10
2023-03-12T10:01:48.247Z,4.28
2023-03-12T10:04:58.018Z,3.72
2023-03-12T10:07:49.716Z,3.28
2023-03-12T10:10:30.835Z,3.45
2023-03-12T10:13:23.921Z,3.17
2023-03-12T10:16:23.575Z,3.75
2023-03-12T10:19:00.353Z,6.75
2023-03-12T10:21:31.776Z,4.50
2023-03-12T10:24:25.111Z,3.03
2023-03-12T10:26:54.508Z,2.85
2023-03-12T10:29:27.196Z,5.68
2023-03-12T10:32:07.927Z,4.80
2023-03-12T10:34:55.367Z,3.13
2023-03-12T10:37:48.316Z,2.90
2023-03-12T10:40:17.894Z,6.82
2023-03-12T10:42:44.568Z,5.57
2023-03-12T10:45:21.493Z,5.38
2023-03-12T10:47:57.317Z,6.93
2023-03-12T10:50:29.690Z,4.28
2023-03-12T10:53:28.638Z,4.85
2023-03-12T10:56:10.345Z,5.47
2023-03-12T10:58:39.643Z,4.03
2023-03-12T11:01:31.694Z,6.03
2023-03-12T11:04:19.129Z,4.18
2023-03-12T11:07:05.895Z,5.93
2023-03-12T11:09:32.555Z,6.07
2023-03-12T11:11:59.110Z,7.38
2023-03-12T11:14:28.003Z,4.68
2023-03-12T11:16:55.349Z,4.40
2023-03-12T11:19:34.112Z,3.75
2023-03-12T11:22:09.020Z,5.80
2023-03-12T11:24:36.193Z,6.32
2023-03-12T11:27:14.112Z,5.95
2023-03-12T11:29:45.809Z,5.03
2023-03-12T11:32:19.102Z,4.07
2023-03-12T11:34:49.821Z,4.18
2023-03-12T11:37:38.608Z,7.30
2023-03-12T11:40:31.644Z,4.68
2023-03-12T11:43:01.138Z,8.00
2023-03-12T11:45:37.149Z,3.80
2023-03-12T11:48:06.613Z,2.92
2023-03-12T11:50:45.670Z,3.42
2023-03-12T11:53:33.623Z,3.38
2023-03-12T11:56:22.366Z,5.53
2023-03-12T11:59:11.395Z,5.60
2023-03-12T12:01:53.158Z,4.95
2023-03-12T12:04:44.841Z,6.07
2023-03-12T12:07:37.831Z,6.88
2023-03-12T12:10:25.420Z,4.53
2023-03-12T12:12:59.552Z,3.75
2023-03-12T12:15:41.991Z,5.53
2023-03-12T12:18:36.080Z,3.65
2023-03-12T12:21:09.013Z,6.15
2023-03-12T12:23:57.633Z,5.20
2023-03-12T12:26:46.113Z,4.30
2023-03-12T12:29:16.149Z,5.10
2023-03-12T12:31:57.284Z,4.57
2023-03-12T12:34:45.262Z,3.72
2023-03-12T12:37:30.174Z,5.07
2023-03-12T12:40:08.871Z,3.40
2023-03-12T12:42:39.461Z,4.88
2023-03-12T12:45:07.071Z,2.17
2023-03-12T12:47:47.446Z,5.30
2023-03-12T12:50:23.038Z,3.22
2023-03-12T12:52:54.246Z,5.70
2023-03-12T12:55:33.100Z,3.72
2023-03-12T12:58:05.005Z,2.90
2023-03-12T13:00:43.097Z,4.65
2023-03-12T13:03:19.186Z,2.33
2023-03-12T13:05:53.211Z,2.58
2023-03-12T13:08:44.592Z,4.78
2023-03-12T13:11:20.418Z,3.40
2023-03-12T13:14:12.055Z,4.18
2023-03-12T13:16:40.294Z,3.63
2023-03-12T13:19:16.271Z,3.13
2023-03-12T13:22:30.965Z,2.20
2023-03-12T13:25:17.500Z,2.83
2023-03-12T13:27:45.251Z,2.33
2023-03-12T13:30:33.604Z,5.60
2023-03-12T13:33:01.828Z,3.55
2023-03-12T13:35:33.278Z,3.85
2023-03-12T13:38:02.576Z,2.70
2023-03-12T13:40:29.129Z,2.60
2023-03-12T13:43:07.806Z,4.95
2023-03-12T13:45:41.546Z,2.58
2023-03-12T13:48:19.076Z,2.33
2023-03-12T13:51:01.646Z,2.92
2023-03-12T13:53:33.649Z,2.92
2023-03-12T13:56:07.739Z,2.45
2023-03-12T13:59:05.470Z,1.33
2023-03-12T14:01:36.938Z,3.50
2023-03-12T14:04:17.593Z,3.05
2023-03-12T14:07:09.907Z,2.28
2023-03-12T14:09:45.869Z,5.07
2023-03-12T14:12:27.849Z,5.15
2023-03-12T14:15:09.633Z,3.05
2023-03-12T14:17:36.794Z,2.83
2023-03-12T14:20:21.492Z,3.13
2023-03-12T14:22:54.242Z,3.08
2023-03-12T14:25:37.285Z,3.25
2023-03-12T14:28:10.917Z,3.70
2023-03-12T14:30:58.868Z,2.53
2023-03-12T14:33:27.742Z,2.05
2023-03-12T14:36:07.604Z,4.13
2023-03-12T14:38:43.546Z,4.38
2023-03-12T14:41:19.924Z,3.38
2023-03-12T14:43:46.700Z,3.38
2023-03-12T14:46:19.357Z,2.75
2023-03-12T14:48:49.506Z,4.32
2023-03-12T14:51:24.686Z,2.97
2023-03-12T14:53:51.723Z,4.50
2023-03-12T14:56:34.815Z,4.65
2023-03-12T14:59:29.338Z,3.80
2023-03-12T15:02:02.055Z,5.47
2023-03-12T15:04:29.476Z,3.60
2023-03-12T15:06:59.005Z,4.20
2023-03-12T15:09:28.105Z,4.40
2023-03-12T15:11:59.982Z,4.28
2023-03-12T15:14:29.579Z,5.47
2023-03-12T15:16:58.354Z,3.17
2023-03-12T15:19:44.578Z,5.95
2023-03-12T15:22:17.741Z,3.97
2023-03-12T15:24:44.572Z,4.85
2023-03-12T15:27:32.753Z,2.97
2023-03-12T15:30:01.012Z,6.38
2023-03-12T15:32:29.831Z,5.20
2023-03-12T15:34:59.147Z,7.05
2023-03-12T15:37:41.324Z,5.68
2023-03-12T15:40:20.452Z,5.15
2023-03-12T15:42:47.469Z,5.07
2023-03-12T15:45:26.125Z,9.52
2023-03-12T15:47:53.901Z,5.22
2023-03-12T15:50:23.280Z,5.00
2023-03-12T15:53:01.474Z,7.95
2023-03-12T15:55:30.132Z,3.85
2023-03-12T15:57:57.872Z,4.78
2023-03-12T16:00:31.350Z,3.00
2023-03-12T16:03:06.025Z,4.10
2023-03-12T16:05:34.797Z,4.60
2023-03-12T16:08:15.899Z,5.95
2023-03-12T16:10:42.489Z,4.05
2023-03-12T16:13:13.526Z,6.97
2023-03-12T16:15:40.580Z,6.97
2023-03-12T16:18:12.860Z,7.70
2023-03-12T16:20:39.445Z,4.45
2023-03-12T16:23:06.029Z,5.25
2023-03-12T16:25:32.749Z,5.60
2023-03-12T16:28:01.940Z,5.38
2023-03-12T16:30:31.361Z,6.32
2023-03-12T16:32:59.176Z,7.43
2023-03-12T16:35:28.060Z,4.78
2023-03-12T16:37:55.789Z,5.45
2023-03-12T16:40:32.997Z,5.35
2023-03-12T16:43:03.514Z,4.57
2023-03-12T16:45:31.954Z,7.13
2023-03-12T16:48:00.236Z,5.88
2023-03-12T16:50:27.610Z,6.20
2023-03-12T16:52:54.427Z,6.03
2023-03-12T16:55:27.804Z,9.77
2023-03-12T16:57:57.894Z,7.40
2023-03-12T17:00:27.310Z,8.07
2023-03-12T17:02:57.843Z,7.32
2023-03-12T17:05:26.585Z,9.43
2023-03-12T17:07:53.674Z,7.25
2023-03-12T17:10:20.389Z,6.43
2023-03-12T17:12:48.416Z,5.10
2023-03-12T17:15:20.845Z,5.97
2023-03-12T17:17:48.275Z,7.18
2023-03-12T17:20:16.234Z,4.80
2023-03-12T17:22:43.164Z,6.75
2023-03-12T17:25:21.952Z,7.22
2023-03-12T17:27:48.534Z,4.95
2023-03-12T17:30:15.113Z,6.45
2023-03-12T17:32:41.748Z,5.30
2023-03-12T17:35:08.460Z,7.68
2023-03-12T17:37:35.124Z,7.60
2023-03-12T17:40:08.927Z,9.48
2023-03-12T17:42:36.045Z,9.20
2023-03-12T17:45:03.880Z,8.32
2023-03-12T17:47:31.055Z,7.93
2023-03-12T17:49:59.441Z,6.60
2023-03-12T17:52:26.084Z,5.20
2023-03-12T17:54:52.637Z,6.93
2023-03-12T17:57:19.303Z,7.88
2023-03-12T17:59:45.878Z,6.93
2023-03-12T18:02:14.358Z,8.75
2023-03-12T18:04:41.171Z,7.15
2023-03-12T18:07:07.987Z,9.75
2023-03-12T18:09:34.637Z,9.80
2023-03-12T18:12:01.241Z,12.98
2023-03-12T18:14:28.036Z,9.15
2023-03-12T18:16:54.930Z,11.35
2023-03-12T18:19:21.605Z,9.77
2023-03-12T18:21:48.209Z,8.38
2023-03-12T18:24:14.994Z,9.88
2023-03-12T18:26:41.835Z,12.57
2023-03-12T18:29:08.437Z,11.65
2023-03-12T18:31:35.098Z,8.13
2023-03-12T18:34:01.675Z,9.27
2023-03-12T18:36:28.357Z,9.52
2023-03-12T18:38:54.986Z,15.93
2023-03-12T18:41:21.619Z,12.13
2023-03-12T18:43:48.250Z,15.00
2023-03-12T18:46:15.074Z,10.32
2023-03-12T18:48:44.067Z,8.77
2023-03-12T18:51:11.062Z,13.07
2023-03-12T18:53:37.673Z,11.25
2023-03-12T18:56:04.528Z,11.10
2023-03-12T18:58:31.161Z,13.25
2023-03-12T19:00:58.734Z,13.40
2023-03-12T19:03:26.050Z,11.88
2023-03-12T19:06:05.871Z,13.38
2023-03-12T19:08:32.571Z,13.40
2023-03-12T19:10:59.234Z,11.25
2023-03-12T19:13:26.160Z,9.32
2023-03-12T19:16:00.568Z,10.68
2023-03-12T19:18:27.710Z,11.35
2023-03-12T19:20:54.715Z,13.52
2023-03-12T19:23:21.602Z,14.95
2023-03-12T19:25:48.744Z,10.68
2023-03-12T19:28:15.318Z,11.52
2023-03-12T19:30:41.909Z,10.32
2023-03-12T19:33:08.760Z,9.80
2023-03-12T19:35:41.955Z,13.35
2023-03-12T19:38:08.985Z,12.90
2023-03-12T19:40:35.711Z,12.45
2023-03-12T19:43:02.466Z,13.10
2023-03-12T19:45:29.238Z,11.48
2023-03-12T19:47:55.900Z,10.80
2023-03-12T19:50:23.919Z,12.52
2023-03-12T19:52:50.546Z,12.10
2023-03-12T19:55:17.185Z,13.35
2023-03-12T19:57:43.752Z,12.65
2023-03-12T20:00:12.323Z,12.50
2023-03-12T20:02:39.721Z,12.85
2023-03-12T20:05:07.108Z,13.32
2023-03-12T20:07:33.968Z,12.00
2023-03-12T20:10:00.765Z,11.38
2023-03-12T20:12:27.357Z,10.25
2023-03-12T20:14:53.975Z,12.90
2023-03-12T20:17:20.629Z,11.63
2023-03-12T20:19:47.197Z,12.80
2023-03-12T20:22:13.829Z,13.75
2023-03-12T20:24:40.456Z,16.42
2023-03-12T20:27:07.138Z,17.15
2023-03-12T20:29:33.694Z,13.68
2023-03-12T20:32:00.449Z,13.25
2023-03-12T20:34:27.132Z,14.52
2023-03-12T20:36:53.743Z,11.43
2023-03-12T20:39:20.351Z,15.23
2023-03-12T20:41:49.006Z,12.40
2023-03-12T20:44:15.641Z,13.40
2023-03-12T20:46:42.210Z,10.55
2023-03-12T20:49:08.773Z,13.52
2023-03-12T20:51:35.358Z,16.20
2023-03-12T20:54:01.930Z,13.93
2023-03-12T20:56:28.677Z,11.43
2023-03-12T20:58:55.454Z,11.30
2023-03-12T21:01:22.069Z,12.50
2023-03-12T21:03:48.700Z,12.32
2023-03-12T21:06:15.256Z,13.27
2023-03-12T21:08:41.833Z,11.82
2023-03-12T21:11:08.610Z,12.38
2023-03-12T21:13:36.360Z,11.80
2023-03-12T21:16:06.132Z,12.55
2023-03-12T21:18:32.873Z,15.63
2023-03-12T21:21:07.471Z,14.68
2023-03-12T21:23:34.747Z,13.60
2023-03-12T21:26:09.078Z,14.48
2023-03-12T21:28:36.341Z,14.43
2023-03-12T21:31:11.780Z,13.63
2023-03-12T21:33:38.454Z,13.80
2023-03-12T21:36:06.611Z,12.95
2023-03-12T21:38:35.522Z,13.90
2023-03-12T21:41:06.763Z,15.95
2023-03-12T21:43:33.310Z,12.88
2023-03-12T21:46:07.631Z,11.48
2023-03-12T21:48:34.962Z,13.45
2023-03-12T21:51:05.777Z,12.95
2023-03-12T21:53:32.552Z,12.07
2023-03-12T21:56:00.363Z,16.20
2023-03-12T21:58:27.981Z,15.00
2023-03-12T22:01:16.467Z,14.93
2023-03-12T22:03:44.728Z,14.50
2023-03-12T22:06:12.003Z,13.05
2023-03-12T22:08:39.193Z,16.58
2023-03-12T22:11:06.999Z,14.93
2023-03-12T22:13:33.817Z,12.23
2023-03-12T22:16:02.593Z,12.00
2023-03-12T22:18:29.564Z,11.90
2023-03-12T22:21:03.288Z,13.00
2023-03-12T22:23:30.206Z,15.90
2023-03-12T22:26:00.478Z,11.32
2023-03-12T22:28:27.163Z,11.93
2023-03-12T22:31:01.824Z,15.30
2023-03-12T22:33:28.941Z,13.23
2023-03-12T22:35:55.577Z,15.80
2023-03-12T22:38:22.964Z,14.82
2023-03-12T22:40:49.666Z,12.93
2023-03-12T22:43:16.445Z,12.93
2023-03-12T22:45:43.050Z,11.75
2023-03-12T22:48:09.663Z,11.60
2023-03-12T22:50:36.259Z,16.95
2023-03-12T22:53:02.830Z,13.77
2023-03-12T22:55:29.397Z,18.40
2023-03-12T22:57:55.976Z,16.02
2023-03-12T23:00:23.130Z,14.38
2023-03-12T23:02:50.252Z,12.00
2023-03-12T23:05:16.871Z,12.77
2023-03-12T23:07:43.499Z,11.63
2023-03-12T23:10:10.464Z,18.40
2023-03-12T23:12:37.037Z,14.43
2023-03-12T23:15:03.862Z,15.85
2023-03-12T23:17:30.525Z,11.38
2023-03-12T23:19:57.063Z,14.30
2023-03-12T23:22:23.618Z,16.17
2023-03-12T23:24:50.985Z,13.57
2023-03-12T23:27:17.535Z,17.70
2023-03-12T23:29:44.089Z,17.45
2023-03-12T23:32:10.641Z,13.00
2023-03-12T23:34:37.218Z,12.73
2023-03-12T23:37:03.858Z,14.57
2023-03-12T23:39:30.992Z,13.77
2023-03-12T23:41:57.939Z,13.52
2023-03-12T23:44:24.850Z,15.65
2023-03-12T23:46:51.457Z,18.92
2023-03-12T23:49:18.028Z,21.35
2023-03-12T23:51:44.612Z,17.38
2023-03-12T23:54:11.198Z,15.85
2023-03-12T23:56:39.512Z,18.92
2023-03-12T23:59:08.056Z,17.90
